createdAt,value
2018-09-14T00:00:12.622Z,92.80
2018-09-14T00:01:12.616Z,93.60
2018-09-14T00:02:12.600Z,94.01
2018-09-14T00:03:12.771Z,93.60
2018-09-14T00:04:12.580Z,93.51
2018-09-14T00:05:12.572Z,93.60
2018-09-14T00:06:12.559Z,93.91
2018-09-14T00:07:12.548Z,94.11
2018-09-14T00:08:12.603Z,93.51
2018-09-14T00:09:12.531Z,93.20
2018-09-14T00:10:12.517Z,92.96
2018-09-14T00:11:12.504Z,93.00
2018-09-14T00:12:12.493Z,92.45
2018-09-14T00:13:12.745Z,92.65
2018-09-14T00:14:12.477Z,92.69
2018-09-14T00:15:12.461Z,92.76
2018-09-14T00:16:12.450Z,92.96
2018-09-14T00:17:12.438Z,92.96
2018-09-14T00:18:13.493Z,92.65
2018-09-14T00:19:12.419Z,92.05
2018-09-14T00:20:12.418Z,92.45
2018-09-14T00:21:12.396Z,92.35
2018-09-14T00:22:12.387Z,92.25
2018-09-14T00:23:13.631Z,92.14
2018-09-14T00:24:12.364Z,91.90
2018-09-14T00:25:12.356Z,91.90
2018-09-14T00:26:12.349Z,92.05
2018-09-14T00:27:12.334Z,92.35
2018-09-14T00:28:12.544Z,92.00
2018-09-14T00:29:12.313Z,92.00
2018-09-14T00:30:12.302Z,91.70
2018-09-14T00:31:12.290Z,91.50
2018-09-14T00:32:12.296Z,92.05
2018-09-14T00:33:12.374Z,92.05
2018-09-14T00:34:12.259Z,91.74
2018-09-14T00:35:12.246Z,91.90
2018-09-14T00:36:12.235Z,91.94
2018-09-14T00:37:12.225Z,92.00
2018-09-14T00:38:12.510Z,92.00
2018-09-14T00:39:12.205Z,92.14
2018-09-14T00:40:12.193Z,91.80
2018-09-14T00:41:12.185Z,91.85
2018-09-14T00:42:12.172Z,91.44
2018-09-14T00:43:12.340Z,92.14
2018-09-14T00:44:12.152Z,92.25
2018-09-14T00:45:12.140Z,92.55
2018-09-14T00:46:12.130Z,92.00
2018-09-14T00:47:12.116Z,92.00
2018-09-14T00:48:12.173Z,92.05
2018-09-14T00:49:12.098Z,92.05
2018-09-14T00:50:12.086Z,91.64
2018-09-14T00:51:12.073Z,92.14
2018-09-14T00:52:12.064Z,92.14
2018-09-14T00:53:12.317Z,91.90
2018-09-14T00:54:12.043Z,92.05
2018-09-14T00:55:12.034Z,92.25
2018-09-14T00:56:12.020Z,92.14
2018-09-14T00:57:12.011Z,92.14
2018-09-14T00:58:12.145Z,92.35
2018-09-14T00:59:11.989Z,92.14
2018-09-14T01:00:11.981Z,91.94
2018-09-14T01:01:11.971Z,92.25
2018-09-14T01:02:11.960Z,91.94
2018-09-14T01:03:12.282Z,92.14
2018-09-14T01:04:11.935Z,91.89
2018-09-14T01:05:11.925Z,92.05
2018-09-14T01:06:11.917Z,91.94
2018-09-14T01:07:11.903Z,92.05
2018-09-14T01:08:12.111Z,92.05
2018-09-14T01:09:11.882Z,92.25
2018-09-14T01:10:11.871Z,91.94
2018-09-14T01:11:11.861Z,92.09
2018-09-14T01:12:11.849Z,91.78
2018-09-14T01:13:13.177Z,92.19
2018-09-14T01:14:11.828Z,91.99
2018-09-14T01:15:11.817Z,92.29
2018-09-14T01:16:11.806Z,92.09
2018-09-14T01:17:11.879Z,92.05
2018-09-14T01:18:12.085Z,92.29
2018-09-14T01:19:11.775Z,91.89
2018-09-14T01:20:11.784Z,91.99
2018-09-14T01:21:11.755Z,91.78
2018-09-14T01:22:11.742Z,92.09
2018-09-14T01:23:13.142Z,92.29
2018-09-14T01:24:11.719Z,92.09
2018-09-14T01:25:11.712Z,92.19
2018-09-14T01:26:11.702Z,91.69
2018-09-14T01:27:11.698Z,91.89
2018-09-14T01:28:12.053Z,91.58
2018-09-14T01:29:11.668Z,91.99
2018-09-14T01:30:11.654Z,91.28
2018-09-14T01:31:11.650Z,91.99
2018-09-14T01:32:11.635Z,91.38
2018-09-14T01:33:11.883Z,91.38
2018-09-14T01:34:11.614Z,91.78
2018-09-14T01:35:11.600Z,92.13
2018-09-14T01:36:11.593Z,91.93
2018-09-14T01:37:11.585Z,91.99
2018-09-14T01:38:11.716Z,91.73
2018-09-14T01:39:11.562Z,92.24
2018-09-14T01:40:11.548Z,92.24
2018-09-14T01:41:11.536Z,92.24
2018-09-14T01:42:11.525Z,91.99
2018-09-14T01:43:12.773Z,91.69
2018-09-14T01:44:11.506Z,91.73
2018-09-14T01:45:11.495Z,92.09
2018-09-14T01:46:11.483Z,91.99
2018-09-14T01:47:11.473Z,91.89
2018-09-14T01:48:11.683Z,92.03
2018-09-14T01:49:11.456Z,91.69
2018-09-14T01:50:11.444Z,91.58
2018-09-14T01:51:11.432Z,91.38
2018-09-14T01:52:11.425Z,92.09
2018-09-14T01:53:11.513Z,91.08
2018-09-14T01:54:11.398Z,91.99
2018-09-14T01:55:11.394Z,91.89
2018-09-14T01:56:11.377Z,91.38
2018-09-14T01:57:11.366Z,90.98
2018-09-14T01:58:11.655Z,91.38
2018-09-14T01:59:11.345Z,91.38
2018-09-14T02:00:11.339Z,91.28
2018-09-14T02:01:11.324Z,91.28
2018-09-14T02:02:12.301Z,92.29
2018-09-14T02:03:11.486Z,91.49
2018-09-14T02:04:11.291Z,91.08
2018-09-14T02:05:11.285Z,91.49
2018-09-14T02:06:11.273Z,91.49
2018-09-14T02:07:11.258Z,91.08
2018-09-14T02:08:12.545Z,91.18
2018-09-14T02:09:11.277Z,91.18
2018-09-14T02:10:11.227Z,91.28
2018-09-14T02:11:11.216Z,91.08
2018-09-14T02:12:11.207Z,91.18
2018-09-14T02:13:11.198Z,91.18
2018-09-14T02:14:11.357Z,90.47
2018-09-14T02:15:11.177Z,91.18
2018-09-14T02:16:11.162Z,91.38
2018-09-14T02:17:11.155Z,90.98
2018-09-14T02:18:11.145Z,91.38
2018-09-14T02:19:12.421Z,90.62
2018-09-14T02:20:11.120Z,92.03
2018-09-14T02:21:11.108Z,91.78
2018-09-14T02:22:11.098Z,91.53
2018-09-14T02:23:11.093Z,90.92
2018-09-14T02:24:12.251Z,91.49
2018-09-14T02:25:11.065Z,91.38
2018-09-14T02:26:11.058Z,91.99
2018-09-14T02:27:11.047Z,91.18
2018-09-14T02:28:11.035Z,91.18
2018-09-14T02:29:13.315Z,91.42
2018-09-14T02:30:11.012Z,91.53
2018-09-14T02:31:11.001Z,92.03
2018-09-14T02:32:11.006Z,92.03
2018-09-14T02:33:10.981Z,91.78
2018-09-14T02:34:11.296Z,91.63
2018-09-14T02:35:10.961Z,91.73
2018-09-14T02:36:10.947Z,91.83
2018-09-14T02:37:10.937Z,92.24
2018-09-14T02:38:10.931Z,91.93
2018-09-14T02:39:11.129Z,92.13
2018-09-14T02:40:10.908Z,92.13
2018-09-14T02:41:10.894Z,92.24
2018-09-14T02:42:10.885Z,91.83
2018-09-14T02:43:10.872Z,92.03
2018-09-14T02:44:12.189Z,91.83
2018-09-14T02:45:11.806Z,91.83
2018-09-14T02:46:10.842Z,91.83
2018-09-14T02:47:10.830Z,92.13
2018-09-14T02:48:10.822Z,92.33
2018-09-14T02:49:11.099Z,92.24
2018-09-14T02:50:10.797Z,92.74
2018-09-14T02:51:10.788Z,92.13
2018-09-14T02:52:10.777Z,91.93
2018-09-14T02:53:10.766Z,92.03
2018-09-14T02:54:10.929Z,91.73
2018-09-14T02:55:10.773Z,92.03
2018-09-14T02:56:10.737Z,91.83
2018-09-14T02:57:10.722Z,92.64
2018-09-14T02:58:10.715Z,91.93
2018-09-14T02:59:10.761Z,92.24
2018-09-14T03:00:10.762Z,92.08
2018-09-14T03:01:10.680Z,92.24
2018-09-14T03:02:10.670Z,92.13
2018-09-14T03:03:10.659Z,92.03
2018-09-14T03:04:10.898Z,92.24
2018-09-14T03:05:10.638Z,92.24
2018-09-14T03:06:10.633Z,92.38
2018-09-14T03:07:10.618Z,92.24
2018-09-14T03:08:10.607Z,92.33
2018-09-14T03:09:10.728Z,92.08
2018-09-14T03:10:10.582Z,92.18
2018-09-14T03:11:10.571Z,92.48
2018-09-14T03:12:10.570Z,92.08
2018-09-14T03:13:10.550Z,92.79
2018-09-14T03:14:10.869Z,93.33
2018-09-14T03:15:10.529Z,93.19
2018-09-14T03:16:10.519Z,92.99
2018-09-14T03:17:10.515Z,92.83
2018-09-14T03:18:10.502Z,93.13
2018-09-14T03:19:10.699Z,93.08
2018-09-14T03:20:10.475Z,93.33
2018-09-14T03:21:10.464Z,93.33
2018-09-14T03:22:10.453Z,93.29
2018-09-14T03:23:10.448Z,93.33
2018-09-14T03:24:10.529Z,92.68
2018-09-14T03:25:10.424Z,93.13
2018-09-14T03:26:10.413Z,92.72
2018-09-14T03:27:10.400Z,92.32
2018-09-14T03:28:10.392Z,92.68
2018-09-14T03:29:10.668Z,92.58
2018-09-14T03:30:10.368Z,93.08
2018-09-14T03:31:10.357Z,92.08
2018-09-14T03:32:10.398Z,91.92
2018-09-14T03:33:10.336Z,92.12
2018-09-14T03:34:10.498Z,92.28
2018-09-14T03:35:10.320Z,92.28
2018-09-14T03:36:10.302Z,92.28
2018-09-14T03:37:10.291Z,92.28
2018-09-14T03:38:10.284Z,91.97
2018-09-14T03:39:10.364Z,91.97
2018-09-14T03:40:10.264Z,92.08
2018-09-14T03:41:10.254Z,91.67
2018-09-14T03:42:10.238Z,90.96
2018-09-14T03:43:10.228Z,90.86
2018-09-14T03:44:10.470Z,90.86
2018-09-14T03:45:10.209Z,91.27
2018-09-14T03:46:10.195Z,90.96
2018-09-14T03:47:10.186Z,90.96
2018-09-14T03:48:10.175Z,91.16
2018-09-14T03:49:10.302Z,91.27
2018-09-14T03:50:10.152Z,91.57
2018-09-14T03:51:10.139Z,91.37
2018-09-14T03:52:10.132Z,90.76
2018-09-14T03:53:10.120Z,90.96
2018-09-14T03:54:11.364Z,91.16
2018-09-14T03:55:10.100Z,91.37
2018-09-14T03:56:10.090Z,91.42
2018-09-14T03:57:10.149Z,91.37
2018-09-14T03:58:10.064Z,91.27
2018-09-14T03:59:10.275Z,91.67
2018-09-14T04:00:10.044Z,91.67
2018-09-14T04:01:10.034Z,91.37
2018-09-14T04:02:10.022Z,91.16
2018-09-14T04:03:10.014Z,91.16
2018-09-14T04:04:10.101Z,91.27
2018-09-14T04:05:09.996Z,91.47
2018-09-14T04:06:09.979Z,91.27
2018-09-14T04:07:09.971Z,90.76
2018-09-14T04:08:09.957Z,90.56
2018-09-14T04:09:11.162Z,90.86
2018-09-14T04:10:09.937Z,90.86
2018-09-14T04:11:09.934Z,91.61
2018-09-14T04:12:09.915Z,92.18
2018-09-14T04:13:09.905Z,91.27
2018-09-14T04:14:10.069Z,90.86
2018-09-14T04:15:09.895Z,90.91
2018-09-14T04:16:09.873Z,90.96
2018-09-14T04:17:09.867Z,91.06
2018-09-14T04:18:09.853Z,91.27
2018-09-14T04:19:09.908Z,90.66
2018-09-14T04:20:09.830Z,91.92
2018-09-14T04:21:09.819Z,91.61
2018-09-14T04:22:09.808Z,90.80
2018-09-14T04:23:09.803Z,91.31
2018-09-14T04:24:10.039Z,91.20
2018-09-14T04:25:09.774Z,91.31
2018-09-14T04:26:09.763Z,91.31
2018-09-14T04:27:09.754Z,91.06
2018-09-14T04:28:09.745Z,90.91
2018-09-14T04:29:09.872Z,91.61
2018-09-14T04:30:09.721Z,91.11
2018-09-14T04:31:09.711Z,92.08
2018-09-14T04:32:09.702Z,91.92
2018-09-14T04:33:09.690Z,91.51
2018-09-14T04:34:10.021Z,91.71
2018-09-14T04:35:09.670Z,91.92
2018-09-14T04:36:09.656Z,91.82
2018-09-14T04:37:09.645Z,91.92
2018-09-14T04:38:09.740Z,91.92
2018-09-14T04:39:09.847Z,92.02
2018-09-14T04:40:09.620Z,91.71
2018-09-14T04:41:09.603Z,91.82
2018-09-14T04:42:09.897Z,92.12
2018-09-14T04:43:09.582Z,92.42
2018-09-14T04:44:09.673Z,92.72
2018-09-14T04:45:09.570Z,92.22
2018-09-14T04:46:09.550Z,92.22
2018-09-14T04:47:09.537Z,92.02
2018-09-14T04:48:09.529Z,92.02
2018-09-14T04:49:09.816Z,92.12
2018-09-14T04:50:09.505Z,92.12
2018-09-14T04:51:09.764Z,92.12
2018-09-14T04:52:09.493Z,92.22
2018-09-14T04:53:09.486Z,92.22
2018-09-14T04:54:09.640Z,92.22
2018-09-14T04:55:09.453Z,92.02
2018-09-14T04:56:09.441Z,91.51
2018-09-14T04:57:09.431Z,91.92
2018-09-14T04:58:09.420Z,91.92
2018-09-14T04:59:09.474Z,91.51
2018-09-14T05:00:09.401Z,92.12
2018-09-14T05:01:09.388Z,91.71
2018-09-14T05:02:09.381Z,91.71
2018-09-14T05:03:09.368Z,91.92
2018-09-14T05:04:09.611Z,91.82
2018-09-14T05:05:09.345Z,92.12
2018-09-14T05:06:09.333Z,92.02
2018-09-14T05:07:09.323Z,92.12
2018-09-14T05:08:09.311Z,91.51
2018-09-14T05:09:09.444Z,91.51
2018-09-14T05:10:09.300Z,91.71
2018-09-14T05:11:09.278Z,91.31
2018-09-14T05:12:09.269Z,91.20
2018-09-14T05:13:09.258Z,91.51
2018-09-14T05:14:09.643Z,90.60
2018-09-14T05:15:09.254Z,91.06
2018-09-14T05:16:09.228Z,90.86
2018-09-14T05:17:09.220Z,91.61
2018-09-14T05:18:09.205Z,91.31
2018-09-14T05:19:09.414Z,91.31
2018-09-14T05:20:09.183Z,91.51
2018-09-14T05:21:09.189Z,90.91
2018-09-14T05:22:09.168Z,91.37
2018-09-14T05:23:09.152Z,91.06
2018-09-14T05:24:09.313Z,90.50
2018-09-14T05:25:09.181Z,90.30
2018-09-14T05:26:09.117Z,90.70
2018-09-14T05:27:09.118Z,90.30
2018-09-14T05:28:09.101Z,90.70
2018-09-14T05:29:09.381Z,90.80
2018-09-14T05:30:09.075Z,91.61
2018-09-14T05:31:09.063Z,91.20
2018-09-14T05:32:09.058Z,90.80
2018-09-14T05:33:09.044Z,90.30
2018-09-14T05:34:09.415Z,90.30
2018-09-14T05:35:09.027Z,90.40
2018-09-14T05:36:09.011Z,91.00
2018-09-14T05:37:09.001Z,90.36
2018-09-14T05:38:09.042Z,89.89
2018-09-14T05:39:09.044Z,91.71
2018-09-14T05:40:08.968Z,90.76
2018-09-14T05:41:08.956Z,89.75
2018-09-14T05:42:08.946Z,90.16
2018-09-14T05:43:08.935Z,89.45
2018-09-14T05:44:09.182Z,89.54
2018-09-14T05:45:08.917Z,90.56
2018-09-14T05:46:08.903Z,90.96
2018-09-14T05:47:08.894Z,89.85
2018-09-14T05:48:08.883Z,89.50
2018-09-14T05:49:09.068Z,88.39
2018-09-14T05:50:08.871Z,88.79
2018-09-14T05:51:08.855Z,88.09
2018-09-14T05:52:08.837Z,88.29
2018-09-14T05:53:08.827Z,87.58
2018-09-14T05:54:10.073Z,87.68
2018-09-14T05:55:08.806Z,88.29
2018-09-14T05:56:08.795Z,89.54
2018-09-14T05:57:08.784Z,89.34
2018-09-14T05:58:08.778Z,88.84
2018-09-14T05:59:08.986Z,89.04
2018-09-14T06:00:08.751Z,88.59
2018-09-14T06:01:08.745Z,87.99
2018-09-14T06:02:08.731Z,87.24
2018-09-14T06:03:08.722Z,86.73
2018-09-14T06:04:08.815Z,86.73
2018-09-14T06:05:08.700Z,87.24
2018-09-14T06:06:08.688Z,86.93
2018-09-14T06:07:08.677Z,86.73
2018-09-14T06:08:08.667Z,86.73
2018-09-14T06:09:08.953Z,86.93
2018-09-14T06:10:08.644Z,86.29
2018-09-14T06:11:08.634Z,86.33
2018-09-14T06:12:08.623Z,86.93
2018-09-14T06:13:08.612Z,86.93
2018-09-14T06:14:08.604Z,87.52
2018-09-14T06:15:08.696Z,88.74
2018-09-14T06:16:08.581Z,88.29
2018-09-14T06:17:08.640Z,88.49
2018-09-14T06:18:08.561Z,88.19
2018-09-14T06:19:08.554Z,87.68
2018-09-14T06:20:08.847Z,88.59
2018-09-14T06:21:08.543Z,87.13
2018-09-14T06:22:08.517Z,86.22
2018-09-14T06:23:08.606Z,86.29
2018-09-14T06:24:08.495Z,86.25
2018-09-14T06:25:08.662Z,85.17
2018-09-14T06:26:08.472Z,85.28
2018-09-14T06:27:08.466Z,84.63
2018-09-14T06:28:08.453Z,84.09
2018-09-14T06:29:08.442Z,83.72
2018-09-14T06:30:08.495Z,83.72
2018-09-14T06:31:08.419Z,83.42
2018-09-14T06:32:08.412Z,84.61
2018-09-14T06:33:08.404Z,84.57
2018-09-14T06:34:08.388Z,83.76
2018-09-14T06:35:08.631Z,87.13
2018-09-14T06:36:08.367Z,86.99
2018-09-14T06:37:08.354Z,86.43
2018-09-14T06:38:08.376Z,87.30
2018-09-14T06:39:09.294Z,85.54
2018-09-14T06:40:08.459Z,86.49
2018-09-14T06:41:08.314Z,86.93
2018-09-14T06:42:08.301Z,86.73
2018-09-14T06:43:08.292Z,86.63
2018-09-14T06:44:08.281Z,85.58
2018-09-14T06:45:08.714Z,84.93
2018-09-14T06:46:08.258Z,85.44
2018-09-14T06:47:08.251Z,84.03
2018-09-14T06:48:08.237Z,84.89
2018-09-14T06:49:08.229Z,84.81
2018-09-14T06:50:08.427Z,86.08
2018-09-14T06:51:08.205Z,86.79
2018-09-14T06:52:08.232Z,87.24
2018-09-14T06:53:08.206Z,85.68
2018-09-14T06:54:08.172Z,85.17
2018-09-14T06:55:08.261Z,85.48
2018-09-14T06:56:08.158Z,85.88
2018-09-14T06:57:08.139Z,85.14
2018-09-14T06:58:08.128Z,84.23
2018-09-14T06:59:08.118Z,83.12
2018-09-14T07:00:08.416Z,83.52
2018-09-14T07:01:08.101Z,83.07
2018-09-14T07:02:08.090Z,83.74
2018-09-14T07:03:08.076Z,82.59
2018-09-14T07:04:08.066Z,82.09
2018-09-14T07:05:29.065Z,81.18
2018-09-14T07:06:08.047Z,80.47
2018-09-14T07:07:08.033Z,79.33
2018-09-14T07:08:08.028Z,81.62
2018-09-14T07:09:08.015Z,81.76
2018-09-14T07:10:08.060Z,81.52
2018-09-14T07:11:07.994Z,80.72
2018-09-14T07:12:07.984Z,81.28
2018-09-14T07:13:08.393Z,79.81
2018-09-14T07:14:07.961Z,81.22
2018-09-14T07:15:08.202Z,81.73
2018-09-14T07:16:07.940Z,81.75
2018-09-14T07:17:07.931Z,79.69
2018-09-14T07:18:07.921Z,79.53
2018-09-14T07:19:07.911Z,79.29
2018-09-14T07:20:08.036Z,79.60
2018-09-14T07:21:07.891Z,76.48
2018-09-14T07:22:07.951Z,79.64
2018-09-14T07:23:07.871Z,79.94
2018-09-14T07:24:07.860Z,79.14
2018-09-14T07:25:08.171Z,78.43
2018-09-14T07:26:07.841Z,80.19
2018-09-14T07:27:07.850Z,81.70
2018-09-14T07:28:07.824Z,79.99
2018-09-14T07:29:07.941Z,81.30
2018-09-14T07:30:08.010Z,81.30
2018-09-14T07:31:07.815Z,79.34
2018-09-14T07:32:07.782Z,79.30
2018-09-14T07:33:07.775Z,80.38
2018-09-14T07:34:07.759Z,79.41
2018-09-14T07:35:08.136Z,79.54
2018-09-14T07:36:07.740Z,79.14
2018-09-14T07:37:08.019Z,79.74
2018-09-14T07:38:08.009Z,79.88
2018-09-14T07:39:07.998Z,79.38
2018-09-14T07:40:08.276Z,80.85
2018-09-14T07:41:07.978Z,79.21
2018-09-14T07:42:07.968Z,78.86
2018-09-14T07:43:07.959Z,78.66
2018-09-14T07:44:08.298Z,77.19
2018-09-14T07:45:08.059Z,79.34
2018-09-14T07:46:08.298Z,79.50
2018-09-14T07:47:08.297Z,79.44
2018-09-14T07:48:08.347Z,80.25
2018-09-14T07:49:08.299Z,79.33
2018-09-14T07:50:07.634Z,77.48
2018-09-14T07:51:08.298Z,75.43
2018-09-14T07:52:07.551Z,75.13
2018-09-14T07:53:07.538Z,74.32
2018-09-14T07:54:07.529Z,76.54
2018-09-14T07:55:07.769Z,76.14
2018-09-14T07:56:08.298Z,76.00
2018-09-14T07:57:07.496Z,75.76
2018-09-14T07:58:07.484Z,77.59
2018-09-14T07:59:07.473Z,77.75
2018-09-14T08:00:07.902Z,75.90
2018-09-14T08:01:07.473Z,76.54
2018-09-14T08:02:07.441Z,76.72
2018-09-14T08:03:07.431Z,76.68
2018-09-14T08:04:07.418Z,78.23
2018-09-14T08:05:07.408Z,77.53
2018-09-14T08:06:07.656Z,77.86
2018-09-14T08:07:07.390Z,78.47
2018-09-14T08:08:07.376Z,79.38
2018-09-14T08:09:07.366Z,79.14
2018-09-14T08:10:07.355Z,78.63
2018-09-14T08:11:09.626Z,77.02
2018-09-14T08:12:07.337Z,76.68
2018-09-14T08:13:07.343Z,77.53
2018-09-14T08:14:07.313Z,78.23
2018-09-14T08:15:07.309Z,77.19
2018-09-14T08:16:07.618Z,77.49
2018-09-14T08:17:07.285Z,76.07
2018-09-14T08:18:07.279Z,77.49
2018-09-14T08:19:07.263Z,75.34
2018-09-14T08:20:07.302Z,75.94
2018-09-14T08:21:10.604Z,75.57
2018-09-14T08:22:07.228Z,74.52
2018-09-14T08:23:07.218Z,74.79
2018-09-14T08:24:07.212Z,74.80
2018-09-14T08:25:07.200Z,77.39
2018-09-14T08:26:07.283Z,76.10
2018-09-14T08:27:07.193Z,74.49
2018-09-14T08:28:07.167Z,75.84
2018-09-14T08:29:07.155Z,74.73
2018-09-14T08:30:07.152Z,73.52
2018-09-14T08:31:07.415Z,73.61
2018-09-14T08:32:07.121Z,71.30
2018-09-14T08:33:07.113Z,74.26
2018-09-14T08:34:07.100Z,73.38
2018-09-14T08:35:07.089Z,72.61
2018-09-14T08:36:07.254Z,73.78
2018-09-14T08:37:07.068Z,71.13
2018-09-14T08:38:07.059Z,72.57
2018-09-14T08:39:07.044Z,74.46
2018-09-14T08:40:07.034Z,74.69
2018-09-14T08:41:07.078Z,72.88
2018-09-14T08:42:07.013Z,72.98
2018-09-14T08:43:07.004Z,74.26
2018-09-14T08:44:06.990Z,74.89
2018-09-14T08:45:06.982Z,70.39
2018-09-14T08:46:06.970Z,72.88
2018-09-14T08:47:07.119Z,70.32
2018-09-14T08:48:06.949Z,69.79
2018-09-14T08:49:06.939Z,70.50
2018-09-14T08:50:06.926Z,70.39
2018-09-14T08:51:06.916Z,70.66
2018-09-14T08:52:06.949Z,70.59
2018-09-14T08:53:06.894Z,71.00
2018-09-14T08:54:06.882Z,70.36
2018-09-14T08:55:06.875Z,73.04
2018-09-14T08:56:06.868Z,72.54
2018-09-14T08:57:08.014Z,73.00
2018-09-14T08:58:06.848Z,70.56
2018-09-14T08:59:06.829Z,69.35
2018-09-14T09:00:06.818Z,70.29
2018-09-14T09:01:06.810Z,70.36
2018-09-14T09:02:06.924Z,70.36
2018-09-14T09:03:06.787Z,69.35
2018-09-14T09:04:06.780Z,68.52
2018-09-14T09:05:06.765Z,69.12
2018-09-14T09:06:06.755Z,69.35
2018-09-14T09:07:07.109Z,69.32
2018-09-14T09:08:06.735Z,68.99
2018-09-14T09:09:06.725Z,67.45
2018-09-14T09:10:06.715Z,66.75
2018-09-14T09:11:06.701Z,67.72
2018-09-14T09:12:06.900Z,66.82
2018-09-14T09:13:06.685Z,66.71
2018-09-14T09:14:06.671Z,66.21
2018-09-14T09:15:06.657Z,66.01
2018-09-14T09:16:06.647Z,66.55
2018-09-14T09:17:07.306Z,66.21
2018-09-14T09:18:06.626Z,69.25
2018-09-14T09:19:06.614Z,69.72
2018-09-14T09:20:06.604Z,69.45
2018-09-14T09:21:06.595Z,69.09
2018-09-14T09:22:06.861Z,67.38
2018-09-14T09:23:06.572Z,65.52
2018-09-14T09:24:06.563Z,62.74
2018-09-14T09:25:06.549Z,66.24
2018-09-14T09:26:06.540Z,64.91
2018-09-14T09:27:06.529Z,66.75
2018-09-14T09:28:06.601Z,67.11
2018-09-14T09:29:06.513Z,67.55
2018-09-14T09:30:06.501Z,68.95
2018-09-14T09:31:06.494Z,66.65
2018-09-14T09:32:07.307Z,65.69
2018-09-14T09:33:06.737Z,63.15
2018-09-14T09:34:06.453Z,63.53
2018-09-14T09:35:06.447Z,64.45
2018-09-14T09:36:06.451Z,61.61
2018-09-14T09:37:06.422Z,64.75
2018-09-14T09:38:06.571Z,65.82
2018-09-14T09:39:06.398Z,62.64
2018-09-14T09:40:06.389Z,65.10
2018-09-14T09:41:06.386Z,66.84
2018-09-14T09:42:06.392Z,65.97
2018-09-14T09:43:06.712Z,66.64
2018-09-14T09:44:06.424Z,65.48
2018-09-14T09:45:06.336Z,63.92
2018-09-14T09:46:06.324Z,64.22
2018-09-14T09:47:06.325Z,60.16
2018-09-14T09:48:06.534Z,59.49
2018-09-14T09:49:06.296Z,63.95
2018-09-14T09:50:06.282Z,63.87
2018-09-14T09:51:06.299Z,64.58
2018-09-14T09:52:06.262Z,62.74
2018-09-14T09:53:06.255Z,60.82
2018-09-14T09:54:09.654Z,59.23
2018-09-14T09:55:06.229Z,58.91
2018-09-14T09:56:06.218Z,58.38
2018-09-14T09:57:06.210Z,59.28
2018-09-14T09:58:06.197Z,58.98
2018-09-14T09:59:06.412Z,59.58
2018-09-14T10:00:06.180Z,58.31
2018-09-14T10:01:06.166Z,59.53
2018-09-14T10:02:06.154Z,59.75
2018-09-14T10:03:06.144Z,61.15
2018-09-14T10:04:06.310Z,60.99
2018-09-14T10:05:06.123Z,59.56
2018-09-14T10:06:06.119Z,59.23
2018-09-14T10:07:06.105Z,59.83
2018-09-14T10:08:06.090Z,61.07
2018-09-14T10:09:06.376Z,59.66
2018-09-14T10:10:06.069Z,59.83
2018-09-14T10:11:06.062Z,58.41
2018-09-14T10:12:06.051Z,59.51
2018-09-14T10:13:06.036Z,58.88
2018-09-14T10:14:07.186Z,57.58
2018-09-14T10:15:06.087Z,57.35
2018-09-14T10:16:06.007Z,56.98
2018-09-14T10:17:05.997Z,56.73
2018-09-14T10:18:05.985Z,58.38
2018-09-14T10:19:06.039Z,57.98
2018-09-14T10:20:05.963Z,58.41
2018-09-14T10:21:05.979Z,57.98
2018-09-14T10:22:05.946Z,57.35
2018-09-14T10:23:05.933Z,57.11
2018-09-14T10:24:06.176Z,56.79
2018-09-14T10:25:05.913Z,57.11
2018-09-14T10:26:05.901Z,58.14
2018-09-14T10:27:05.890Z,56.31
2018-09-14T10:28:05.883Z,58.37
2018-09-14T10:29:06.320Z,58.19
2018-09-14T10:30:05.860Z,58.67
2018-09-14T10:31:05.851Z,57.48
2018-09-14T10:32:05.841Z,55.93
2018-09-14T10:33:05.831Z,55.18
2018-09-14T10:34:10.141Z,55.46
2018-09-14T10:35:05.845Z,54.66
2018-09-14T10:36:05.799Z,54.98
2018-09-14T10:37:05.830Z,56.23
2018-09-14T10:38:05.778Z,56.01
2018-09-14T10:39:05.981Z,55.18
2018-09-14T10:40:05.778Z,55.71
2018-09-14T10:41:05.775Z,55.13
2018-09-14T10:42:05.737Z,54.21
2018-09-14T10:43:05.728Z,53.91
2018-09-14T10:44:05.714Z,56.46
2018-09-14T10:45:06.107Z,59.19
2018-09-14T10:46:05.693Z,59.27
2018-09-14T10:47:05.728Z,57.78
2018-09-14T10:48:05.670Z,56.16
2018-09-14T10:49:05.659Z,56.51
2018-09-14T10:50:06.852Z,55.26
2018-09-14T10:51:05.637Z,53.64
2018-09-14T10:52:05.628Z,52.09
2018-09-14T10:53:05.616Z,52.02
2018-09-14T10:54:05.654Z,53.36
2018-09-14T10:55:05.685Z,54.06
2018-09-14T10:56:05.587Z,57.02
2018-09-14T10:57:06.147Z,58.72
2018-09-14T10:58:05.567Z,56.51
2018-09-14T10:59:05.554Z,55.49
2018-09-14T11:00:05.825Z,56.07
2018-09-14T11:01:05.539Z,57.92
2018-09-14T11:02:05.523Z,59.22
2018-09-14T11:03:05.511Z,57.95
2018-09-14T11:04:05.502Z,59.08
2018-09-14T11:05:05.493Z,58.65
2018-09-14T11:06:05.558Z,58.92
2018-09-14T11:07:05.646Z,58.45
2018-09-14T11:08:05.458Z,59.72
2018-09-14T11:09:05.448Z,59.95
2018-09-14T11:10:05.518Z,59.38
2018-09-14T11:11:05.698Z,59.20
2018-09-14T11:12:05.435Z,61.41
2018-09-14T11:13:05.531Z,59.38
2018-09-14T11:14:05.394Z,58.29
2018-09-14T11:15:05.388Z,58.26
2018-09-14T11:16:05.528Z,58.02
2018-09-14T11:17:05.366Z,59.28
2018-09-14T11:18:05.354Z,58.19
2018-09-14T11:19:05.388Z,56.94
2018-09-14T11:20:05.338Z,56.54
2018-09-14T11:21:06.588Z,56.11
2018-09-14T11:22:05.313Z,55.49
2018-09-14T11:23:05.302Z,55.76
2018-09-14T11:24:05.293Z,55.79
2018-09-14T11:25:05.334Z,56.29
2018-09-14T11:26:06.418Z,56.09
2018-09-14T11:27:05.264Z,55.64
2018-09-14T11:28:05.385Z,55.64
2018-09-14T11:29:05.245Z,55.64
2018-09-14T11:30:05.232Z,54.94
2018-09-14T11:31:08.405Z,55.34
2018-09-14T11:32:05.210Z,55.66
2018-09-14T11:33:05.204Z,55.64
2018-09-14T11:34:05.190Z,55.34
2018-09-14T11:35:05.183Z,55.51
2018-09-14T11:36:06.392Z,55.32
2018-09-14T11:37:05.176Z,55.29
2018-09-14T11:38:05.177Z,56.61
2018-09-14T11:39:05.141Z,55.32
2018-09-14T11:40:05.129Z,54.89
2018-09-14T11:41:05.120Z,54.59
2018-09-14T11:42:05.209Z,55.96
2018-09-14T11:43:05.100Z,55.73
2018-09-14T11:44:05.088Z,55.71
2018-09-14T11:45:05.117Z,53.31
2018-09-14T11:46:05.076Z,53.69
2018-09-14T11:47:07.494Z,53.76
2018-09-14T11:48:05.048Z,53.09
2018-09-14T11:49:05.035Z,54.31
2018-09-14T11:50:05.027Z,54.01
2018-09-14T11:51:05.015Z,55.31
2018-09-14T11:52:06.097Z,54.16
2018-09-14T11:53:04.994Z,53.64
2018-09-14T11:54:05.019Z,52.67
2018-09-14T11:55:04.976Z,54.57
2018-09-14T11:56:04.961Z,55.99
2018-09-14T11:57:05.005Z,53.94
2018-09-14T11:58:04.938Z,54.79
2018-09-14T11:59:04.930Z,52.37
2018-09-14T12:00:04.921Z,52.92
2018-09-14T12:01:04.907Z,52.49
2018-09-14T12:02:05.159Z,52.67
2018-09-14T12:03:04.887Z,51.87
2018-09-14T12:04:04.904Z,52.27
2018-09-14T12:05:04.871Z,52.99
2018-09-14T12:06:04.859Z,52.57
2018-09-14T12:07:04.972Z,53.84
2018-09-14T12:08:04.838Z,56.46
2018-09-14T12:09:04.824Z,58.62
2018-09-14T12:10:04.815Z,57.85
2018-09-14T12:11:04.806Z,57.17
2018-09-14T12:12:04.795Z,58.09
2018-09-14T12:13:05.016Z,58.35
2018-09-14T12:14:04.826Z,58.19
2018-09-14T12:15:04.760Z,57.37
2018-09-14T12:16:04.751Z,56.11
2018-09-14T12:17:04.744Z,57.41
2018-09-14T12:18:04.853Z,57.01
2018-09-14T12:19:04.722Z,55.91
2018-09-14T12:20:04.710Z,56.16
2018-09-14T12:21:04.697Z,56.26
2018-09-14T12:22:04.716Z,55.39
2018-09-14T12:23:04.985Z,55.79
2018-09-14T12:24:04.669Z,56.09
2018-09-14T12:25:04.670Z,55.58
2018-09-14T12:26:04.648Z,55.69
2018-09-14T12:27:04.637Z,55.09
2018-09-14T12:28:04.816Z,55.54
2018-09-14T12:29:04.618Z,56.46
2018-09-14T12:30:04.606Z,56.57
2018-09-14T12:31:04.602Z,56.44
2018-09-14T12:32:04.592Z,56.16
2018-09-14T12:33:04.960Z,57.04
2018-09-14T12:34:04.569Z,55.41
2018-09-14T12:35:04.556Z,55.58
2018-09-14T12:36:04.548Z,53.86
2018-09-14T12:37:04.540Z,54.06
2018-09-14T12:38:05.334Z,55.11
2018-09-14T12:39:04.522Z,54.99
2018-09-14T12:40:04.504Z,56.01
2018-09-14T12:41:04.495Z,55.58
2018-09-14T12:42:04.484Z,55.04
2018-09-14T12:43:04.618Z,54.04
2018-09-14T12:44:04.463Z,55.09
2018-09-14T12:45:04.454Z,55.26
2018-09-14T12:46:04.469Z,53.84
2018-09-14T12:47:04.548Z,53.71
2018-09-14T12:48:04.860Z,53.78
2018-09-14T12:49:04.413Z,52.57
2018-09-14T12:50:04.486Z,53.27
2018-09-14T12:51:04.392Z,52.44
2018-09-14T12:52:04.416Z,53.96